Time;durP1;ratioP1;P1;durP2;ratioP2;P2;SDS_P1;SDS_P2;PMS_P1;PMS_P2;Temp;Humidity;BMP_temperature;BMP_pressure;BME280_temperature;BME280_humidity;BME280_pressure;Samples;Min_cycle;Max_cycle;Signal;HPM_P1;HPM_P2
2022/09/25 00:01:35;;;;;;;5.93;2.22;;;9.70;99.90;;;;;;5066801;28;20075;-76
2022/09/25 00:04:01;;;;;;;8.73;2.38;;;9.50;99.90;;;;;;5050512;28;20102;-76
2022/09/25 00:06:28;;;;;;;3.45;1.80;;;9.50;99.90;;;;;;5046973;28;20048;-76
2022/09/25 00:08:54;;;;;;;9.60;3.03;;;9.50;99.90;;;;;;5068116;28;20078;-77
2022/09/25 00:11:28;;;;;;;10.88;3.15;;;9.60;99.90;;;;;;5066015;28;20076;-77
2022/09/25 00:13:55;;;;;;;9.55;3.15;;;9.40;99.90;;;;;;5068214;28;20470;-77
2022/09/25 00:16:24;;;;;;;5.68;2.40;;;9.50;99.90;;;;;;5065415;28;20502;-76
2022/09/25 00:21:36;;;;;;;7.80;2.83;;;9.30;99.90;;;;;;5047993;28;20406;-77
2022/09/25 00:24:05;;;;;;;5.97;2.08;;;9.40;99.90;;;;;;5068117;28;20047;-76
2022/09/25 00:26:33;;;;;;;5.68;2.45;;;9.30;99.90;;;;;;5072497;28;20091;-76
2022/09/25 00:29:00;;;;;;;6.63;2.55;;;9.50;99.90;;;;;;5070591;28;20541;-77
2022/09/25 00:31:27;;;;;;;6.47;2.00;;;9.40;99.90;;;;;;5067417;28;20051;-76
2022/09/25 00:33:55;;;;;;;7.05;2.55;;;9.10;99.90;;;;;;5071224;28;20044;-75
2022/09/25 00:36:21;;;;;;;7.53;2.22;;;9.20;99.90;;;;;;5068144;28;20059;-76
2022/09/25 00:38:47;;;;;;;7.75;1.77;;;9.30;99.90;;;;;;5051199;28;20040;-76
2022/09/25 00:41:15;;;;;;;4.18;2.22;;;9.20;99.90;;;;;;5049655;28;20044;-76
2022/09/25 00:43:45;;;;;;;4.70;3.05;;;9.20;99.90;;;;;;5065951;28;20495;-77
2022/09/25 00:46:17;;;;;;;7.40;3.40;;;9.40;99.90;;;;;;5067570;28;20029;-76
2022/09/25 00:49:13;;;;;;;6.07;1.70;;;9.30;99.90;;;;;;5068886;28;20158;-76
2022/09/25 00:51:41;;;;;;;15.52;3.35;;;9.10;99.90;;;;;;5067720;28;20049;-76
2022/09/25 00:54:18;;;;;;;9.50;1.88;;;9.20;99.90;;;;;;5049602;28;20517;-76
2022/09/25 00:56:49;;;;;;;12.32;2.42;;;9.40;99.90;;;;;;5068960;28;20055;-75
2022/09/25 00:59:16;;;;;;;;;;;9.20;99.90;;;;;;5069511;28;20048;-75
2022/09/25 01:01:42;;;;;;;7.18;2.03;;;9.30;99.90;;;;;;5067344;28;19920;-77
2022/09/25 01:04:10;;;;;;;9.52;3.35;;;9.30;99.90;;;;;;5068207;28;20059;-78
2022/09/25 01:06:35;;;;;;;8.98;3.30;;;9.40;99.90;;;;;;5069184;28;20045;-76
2022/09/25 01:09:01;;;;;;;8.35;1.90;;;9.30;99.90;;;;;;5067999;28;20036;-76
2022/09/25 01:11:27;;;;;;;6.97;2.63;;;9.40;99.90;;;;;;5067573;28;20072;-77
2022/09/25 01:13:56;;;;;;;5.22;1.85;;;9.30;99.90;;;;;;5063882;28;20047;-76
2022/09/25 01:17:00;;;;;;;6.53;2.30;;;9.00;99.90;;;;;;5048875;28;20388;-75
2022/09/25 01:20:02;;;;;;;6.10;1.85;;;9.10;99.90;;;;;;5060097;28;20048;-76
2022/09/25 01:22:58;;;;;;;6.97;1.92;;;9.00;99.90;;;;;;5064618;28;20166;-77
2022/09/25 01:26:16;;;;;;;5.95;2.13;;;9.00;99.90;;;;;;5057379;28;20044;-75
2022/09/25 01:28:49;;;;;;;5.78;2.38;;;8.90;99.90;;;;;;5060476;28;20042;-76
2022/09/25 01:31:44;;;;;;;8.93;2.25;;;8.90;99.90;;;;;;5062299;28;20045;-77
2022/09/25 01:34:22;;;;;;;11.50;3.40;;;9.00;99.90;;;;;;5063422;28;20047;-75
2022/09/25 01:37:19;;;;;;;6.95;2.58;;;9.00;99.90;;;;;;5065432;28;20052;-76
2022/09/25 01:39:57;;;;;;;11.30;2.75;;;8.70;99.90;;;;;;5064976;28;20055;-75
2022/09/25 01:42:29;;;;;;;5.28;1.98;;;8.70;99.90;;;;;;5061033;28;20040;-75
2022/09/25 01:45:06;;;;;;;9.05;3.10;;;8.70;99.90;;;;;;5063211;28;20075;-77
2022/09/25 01:47:37;;;;;;;7.53;2.53;;;8.90;99.90;;;;;;5058634;28;20045;-76
2022/09/25 01:50:12;;;;;;;6.50;2.42;;;8.70;99.90;;;;;;5049091;28;20052;-77
2022/09/25 01:52:42;;;;;;;3.78;2.10;;;8.70;99.90;;;;;;5055336;28;20041;-76
2022/09/25 01:55:17;;;;;;;5.85;2.35;;;8.80;99.90;;;;;;5064193;28;20071;-75
2022/09/25 01:57:52;;;;;;;29.98;3.42;;;9.00;99.90;;;;;;5066698;28;20399;-77
2022/09/25 02:00:20;;;;;;;12.50;2.67;;;8.90;99.90;;;;;;5063868;28;20098;-75
2022/09/25 02:02:54;;;;;;;9.45;2.90;;;9.10;99.90;;;;;;5063063;28;20048;-76
2022/09/25 02:05:48;;;;;;;8.68;2.83;;;9.10;99.90;;;;;;5063955;28;20084;-76
2022/09/25 02:08:21;;;;;;;8.05;2.78;;;9.10;99.90;;;;;;5065428;28;20063;-79
2022/09/25 02:10:54;;;;;;;10.30;3.22;;;9.40;99.90;;;;;;5065139;28;20780;-77
2022/09/25 02:13:22;;;;;;;17.05;3.05;;;9.40;99.90;;;;;;5061292;28;20078;-77
2022/09/25 02:15:55;;;;;;;6.22;2.50;;;9.50;99.90;;;;;;5044798;28;20113;-77
2022/09/25 02:21:18;;;;;;;7.45;2.00;;;9.40;99.90;;;;;;5054780;28;20506;-75
2022/09/25 02:23:52;;;;;;;4.43;1.85;;;9.20;99.90;;;;;;5064222;28;20040;-78
2022/09/25 02:26:27;;;;;;;5.82;1.95;;;9.20;99.90;;;;;;5064225;28;20045;-76
2022/09/25 02:28:53;;;;;;;10.30;2.35;;;9.50;99.90;;;;;;5046447;28;20056;-76
2022/09/25 02:31:24;;;;;;;6.47;2.35;;;9.40;99.90;;;;;;5045495;28;20051;-77
2022/09/25 02:33:51;;;;;;;8.43;2.85;;;9.20;99.90;;;;;;5063081;28;20489;-76
2022/09/25 02:36:19;;;;;;;12.13;2.10;;;9.20;99.90;;;;;;5045878;28;20064;-76
2022/09/25 02:38:47;;;;;;;5.05;1.40;;;9.40;99.90;;;;;;5046979;28;20040;-76
2022/09/25 02:41:40;;;;;;;6.18;2.35;;;9.30;99.90;;;;;;5063446;28;20044;-76
2022/09/25 02:44:21;;;;;;;8.35;2.90;;;9.10;99.90;;;;;;5055098;28;20119;-77
2022/09/25 02:47:07;;;;;;;4.05;1.85;;;9.30;99.90;;;;;;5059390;28;20086;-76
2022/09/25 02:49:54;;;;;;;5.18;1.67;;;9.00;99.90;;;;;;5063931;28;20044;-75
2022/09/25 02:52:26;;;;;;;3.58;1.42;;;9.10;99.90;;;;;;5062827;28;20376;-74
2022/09/25 02:54:59;;;;;;;11.93;2.40;;;9.10;99.90;;;;;;5063660;28;20099;-77
2022/09/25 02:57:37;;;;;;;8.60;2.08;;;9.00;99.90;;;;;;5060690;28;20045;-77
2022/09/25 03:00:07;;;;;;;9.85;3.35;;;9.00;99.90;;;;;;5063828;28;20076;-78
2022/09/25 03:02:34;;;;;;;2.33;1.80;;;8.70;99.90;;;;;;5062301;28;20113;-78
2022/09/25 03:05:01;;;;;;;5.80;2.15;;;9.00;99.90;;;;;;5064081;28;20048;-76
2022/09/25 03:07:27;;;;;;;7.82;2.22;;;8.60;99.90;;;;;;5046283;28;20044;-77
2022/09/25 03:09:56;;;;;;;4.18;2.30;;;8.90;99.90;;;;;;5063583;28;20045;-75
2022/09/25 03:12:22;;;;;;;5.32;2.03;;;8.50;99.90;;;;;;5061740;28;20120;-77
2022/09/25 03:14:47;;;;;;;5.75;2.10;;;8.50;99.90;;;;;;5062992;28;20521;-76
2022/09/25 03:17:16;;;;;;;7.80;1.98;;;8.80;99.90;;;;;;5045463;28;20041;-78
2022/09/25 03:19:42;;;;;;;13.52;3.08;;;8.70;99.90;;;;;;5027003;28;20552;-76
2022/09/25 03:22:07;;;;;;;9.70;2.85;;;8.70;99.90;;;;;;5059266;28;20041;-75
2022/09/25 03:24:33;;;;;;;8.23;1.98;;;8.40;99.90;;;;;;5064406;28;20041;-77
2022/09/25 03:26:59;;;;;;;5.90;1.73;;;8.50;99.90;;;;;;5049642;28;20043;-76
2022/09/25 03:29:24;;;;;;;5.00;2.15;;;8.50;99.90;;;;;;5068200;28;20060;-75
2022/09/25 03:31:50;;;;;;;6.38;2.00;;;8.40;99.90;;;;;;5064638;28;20037;-75
2022/09/25 03:34:17;;;;;;;8.90;2.40;;;8.40;99.90;;;;;;5050537;28;20046;-76
2022/09/25 03:36:46;;;;;;;6.13;2.53;;;8.60;99.90;;;;;;5066460;28;20046;-74
2022/09/25 03:39:14;;;;;;;7.28;2.53;;;8.50;99.90;;;;;;5062658;28;20043;-76
2022/09/25 03:41:42;;;;;;;4.30;1.88;;;8.60;99.90;;;;;;5065058;28;20041;-77
2022/09/25 03:44:07;;;;;;;6.97;2.60;;;8.70;99.90;;;;;;5068088;28;20127;-76
2022/09/25 03:46:34;;;;;;;10.77;2.83;;;8.80;99.90;;;;;;5064436;28;20127;-76
2022/09/25 03:49:02;;;;;;;7.72;2.03;;;9.00;99.90;;;;;;5067450;28;20094;-76
2022/09/25 03:51:29;;;;;;;6.63;2.55;;;9.10;99.90;;;;;;5066887;28;20324;-76
2022/09/25 03:53:55;;;;;;;9.20;1.60;;;8.90;99.90;;;;;;5043475;28;20048;-77
2022/09/25 03:56:23;;;;;;;8.13;2.15;;;9.30;99.90;;;;;;5064322;28;20055;-76
2022/09/25 03:58:50;;;;;;;9.70;2.22;;;9.10;99.90;;;;;;5065402;28;20044;-75
2022/09/25 04:01:18;;;;;;;11.70;2.33;;;9.40;99.90;;;;;;5063235;28;20128;-76
2022/09/25 04:03:45;;;;;;;10.50;2.38;;;9.40;99.90;;;;;;5056412;28;20059;-78
2022/09/25 04:06:14;;;;;;;9.27;1.70;;;9.30;99.90;;;;;;5066268;28;20060;-75
2022/09/25 04:08:40;;;;;;;14.30;2.38;;;9.30;99.90;;;;;;5031897;28;20045;-76
2022/09/25 04:11:06;;;;;;;7.35;1.92;;;9.60;99.90;;;;;;5065685;28;20044;-76
2022/09/25 04:13:34;;;;;;;6.80;1.20;;;9.40;99.90;;;;;;5045623;28;20049;-75
2022/09/25 04:16:02;;;;;;;11.02;1.73;;;9.60;99.90;;;;;;5064940;28;20059;-77
2022/09/25 04:18:30;;;;;;;8.60;1.40;;;9.40;99.90;;;;;;5066714;28;20445;-77
2022/09/25 04:21:06;;;;;;;5.05;1.38;;;9.60;99.90;;;;;;5066564;28;20410;-78
2022/09/25 04:23:31;;;;;;;8.00;1.60;;;9.60;99.90;;;;;;5065833;28;20106;-75
2022/09/25 04:25:57;;;;;;;7.97;2.13;;;9.30;99.90;;;;;;5064888;28;20522;-77
2022/09/25 04:28:24;;;;;;;7.88;1.70;;;9.60;99.90;;;;;;5066933;28;20423;-75
2022/09/25 04:30:50;;;;;;;16.20;2.22;;;9.50;99.90;;;;;;5066442;28;20066;-76
2022/09/25 04:36:02;;;;;;;5.50;0.90;;;9.60;99.90;;;;;;5063941;28;20052;-76
2022/09/25 04:38:31;;;;;;;4.28;1.05;;;9.50;99.90;;;;;;5066419;28;20040;-75
2022/09/25 04:40:58;;;;;;;3.47;0.88;;;9.70;99.90;;;;;;5066674;28;20563;-76
2022/09/25 04:43:24;;;;;;;5.45;1.67;;;9.80;99.90;;;;;;5048931;28;20080;-76
2022/09/25 04:45:50;;;;;;;2.90;1.65;;;9.40;99.90;;;;;;5064397;28;20032;-76
2022/09/25 04:48:16;;;;;;;4.03;1.33;;;9.70;99.90;;;;;;5065343;28;20032;-75
2022/09/25 04:50:50;;;;;;;3.38;1.00;;;9.70;99.90;;;;;;5067019;28;20424;-75
2022/09/25 04:53:17;;;;;;;4.20;1.92;;;9.40;99.90;;;;;;5047197;28;20388;-76
2022/09/25 04:55:44;;;;;;;4.38;1.73;;;9.60;99.90;;;;;;5041841;28;20053;-76
2022/09/25 04:58:10;;;;;;;2.20;0.98;;;9.50;99.90;;;;;;5065819;28;20101;-75
2022/09/25 05:00:37;;;;;;;3.55;1.23;;;9.80;99.90;;;;;;5065967;28;20423;-77
2022/09/25 05:03:03;;;;;;;4.47;2.00;;;9.70;99.90;;;;;;5028745;28;20416;-77
2022/09/25 05:05:30;;;;;;;5.72;1.35;;;9.60;99.90;;;;;;5045390;28;20388;-75
2022/09/25 05:07:58;;;;;;;9.82;2.90;;;9.70;99.90;;;;;;5045218;28;20033;-76
2022/09/25 05:10:27;;;;;;;19.45;1.90;;;9.90;99.90;;;;;;5046351;28;20087;-77
2022/09/25 05:12:57;;;;;;;3.35;0.80;;;9.60;99.90;;;;;;5047866;28;20086;-77
2022/09/25 05:15:42;;;;;;;4.60;1.35;;;9.60;99.90;;;;;;4813918;22;22013;-77
2022/09/25 05:18:15;;;;;;;2.90;1.60;;;9.90;99.90;;;;;;4993781;28;20369;-78
2022/09/25 05:20:41;;;;;;;5.78;2.03;;;9.70;99.90;;;;;;4990530;28;20076;-76
2022/09/25 05:23:07;;;;;;;5.07;1.13;;;10.00;99.90;;;;;;4999788;28;20082;-77
2022/09/25 05:25:33;;;;;;;5.35;1.80;;;10.10;99.90;;;;;;5003221;28;20135;-76
2022/09/25 05:28:00;;;;;;;9.18;1.90;;;9.90;99.90;;;;;;4991994;28;20042;-75
2022/09/25 05:30:28;;;;;;;8.90;2.08;;;10.10;99.90;;;;;;5003276;28;20044;-79
2022/09/25 05:32:57;;;;;;;2.78;1.83;;;9.90;99.90;;;;;;4993131;28;20096;-78
2022/09/25 05:35:23;;;;;;;5.72;1.17;;;10.00;99.90;;;;;;4997326;28;20045;-75
2022/09/25 05:37:49;;;;;;;5.30;1.40;;;9.90;99.90;;;;;;5007806;28;20042;-77
2022/09/25 05:40:16;;;;;;;3.35;0.88;;;9.90;99.90;;;;;;5000582;28;20535;-76
2022/09/25 05:42:43;;;;;;;6.10;1.50;;;10.00;99.90;;;;;;5008762;28;20400;-77
2022/09/25 05:45:12;;;;;;;5.68;1.67;;;10.10;99.90;;;;;;4993006;28;20523;-76
2022/09/25 05:47:42;;;;;;;5.35;1.52;;;10.20;99.90;;;;;;5000874;28;20038;-76
2022/09/25 05:50:10;;;;;;;2.88;1.38;;;10.00;99.90;;;;;;5007264;28;20054;-76
2022/09/25 05:52:36;;;;;;;4.10;1.52;;;10.20;99.90;;;;;;5008532;28;20037;-76
2022/09/25 05:55:04;;;;;;;6.10;2.20;;;9.90;99.90;;;;;;4996358;28;20053;-77
2022/09/25 05:57:32;;;;;;;4.35;1.52;;;10.20;99.90;;;;;;4991435;28;20733;-77
2022/09/25 05:59:58;;;;;;;7.43;1.38;;;10.00;99.90;;;;;;4999973;28;20050;-75
2022/09/25 06:02:24;;;;;;;3.45;1.52;;;10.00;99.90;;;;;;5004399;28;20110;-77
2022/09/25 06:04:49;;;;;;;4.80;1.70;;;10.10;99.90;;;;;;4990574;28;20050;-77
2022/09/25 06:07:15;;;;;;;4.13;1.77;;;10.20;99.90;;;;;;5006296;28;20042;-77
2022/09/25 06:09:41;;;;;;;2.10;1.00;;;10.20;99.90;;;;;;4994149;28;20405;-76
2022/09/25 06:12:06;;;;;;;5.80;1.52;;;10.10;99.90;;;;;;4999357;28;20042;-76
2022/09/25 06:14:34;;;;;;;7.85;2.10;;;10.00;99.90;;;;;;5016366;28;20050;-77
2022/09/25 06:17:01;;;;;;;3.15;1.30;;;10.30;99.90;;;;;;5013903;28;20419;-76
2022/09/25 06:19:29;;;;;;;5.00;1.88;;;10.00;99.90;;;;;;5028909;28;20053;-76
2022/09/25 06:21:59;;;;;;;8.50;1.88;;;10.30;99.90;;;;;;5027376;28;20048;-75
2022/09/25 06:24:24;;;;;;;5.80;1.63;;;10.00;99.90;;;;;;5055419;28;20080;-76
2022/09/25 06:26:50;;;;;;;5.53;1.63;;;10.10;99.90;;;;;;5045217;28;20343;-76
2022/09/25 06:29:16;;;;;;;4.65;1.80;;;10.10;99.90;;;;;;5026214;28;20053;-75
2022/09/25 06:31:41;;;;;;;5.70;1.65;;;10.50;99.90;;;;;;5017857;28;20056;-76
2022/09/25 06:34:09;;;;;;;6.13;1.50;;;10.40;99.90;;;;;;5012962;28;20029;-76
2022/09/25 06:36:35;;;;;;;5.88;1.23;;;10.30;99.90;;;;;;5026496;28;20635;-76
2022/09/25 06:39:01;;;;;;;4.88;2.00;;;10.50;99.90;;;;;;5042591;28;20052;-75
2022/09/25 06:41:26;;;;;;;7.30;1.83;;;10.40;99.90;;;;;;5044274;28;20492;-74
2022/09/25 06:43:52;;;;;;;6.82;1.65;;;10.60;99.90;;;;;;5054326;28;20041;-75
2022/09/25 06:46:21;;;;;;;6.10;1.58;;;10.40;99.90;;;;;;5038881;28;20483;-75
2022/09/25 06:48:55;;;;;;;4.95;1.70;;;10.30;99.90;;;;;;5026222;28;20053;-76
2022/09/25 06:51:21;;;;;;;8.13;2.92;;;10.40;99.90;;;;;;5040246;28;20072;-76
2022/09/25 06:53:47;;;;;;;4.07;2.08;;;10.80;99.90;;;;;;5041555;28;20049;-76
2022/09/25 06:56:13;;;;;;;14.25;2.38;;;10.80;99.90;;;;;;5033895;28;20060;-75
2022/09/25 06:58:38;;;;;;;5.97;1.67;;;10.90;99.90;;;;;;5040905;28;20103;-75
2022/09/25 07:01:09;;;;;;;12.07;2.80;;;10.70;99.90;;;;;;5043364;28;20079;-75
2022/09/25 07:03:43;;;;;;;;;;;10.90;99.90;;;;;;5043364;28;20046;-75
2022/09/25 07:06:15;;;;;;;7.63;2.67;;;11.20;99.90;;;;;;5040242;28;19925;-76
2022/09/25 07:08:42;;;;;;;3.75;1.30;;;11.20;99.90;;;;;;5048681;28;20059;-76
2022/09/25 07:11:13;;;;;;;3.63;1.75;;;11.20;99.90;;;;;;5051925;28;20425;-76
2022/09/25 07:13:40;;;;;;;7.60;1.23;;;11.20;99.90;;;;;;5044630;28;20360;-76
2022/09/25 07:16:11;;;;;;;4.90;2.05;;;11.60;99.90;;;;;;5041377;28;20422;-75
2022/09/25 07:18:37;;;;;;;4.90;1.27;;;11.50;99.90;;;;;;5040985;28;20066;-76
2022/09/25 07:21:06;;;;;;;11.32;2.15;;;11.50;99.90;;;;;;5041431;28;20020;-75
2022/09/25 07:23:32;;;;;;;8.88;1.60;;;11.80;99.90;;;;;;5030971;28;20037;-74
2022/09/25 07:26:23;;;;;;;5.38;1.45;;;11.60;99.90;;;;;;5038543;28;20065;-75
2022/09/25 07:28:57;;;;;;;4.35;1.58;;;11.80;99.90;;;;;;5038485;28;20051;-75
2022/09/25 07:31:25;;;;;;;8.68;2.10;;;11.90;99.90;;;;;;5012305;28;20141;-74
2022/09/25 07:33:51;;;;;;;5.25;1.50;;;12.20;99.90;;;;;;5037855;28;20132;-75
2022/09/25 07:36:17;;;;;;;8.85;1.52;;;12.30;99.90;;;;;;5044058;28;20049;-77
2022/09/25 07:38:44;;;;;;;3.42;0.77;;;12.60;99.90;;;;;;5048151;28;20052;-75
2022/09/25 07:41:11;;;;;;;5.78;1.40;;;12.50;99.90;;;;;;5041982;28;20107;-74
2022/09/25 07:43:37;;;;;;;6.35;1.23;;;12.80;99.90;;;;;;5028722;28;20051;-75
2022/09/25 07:46:04;;;;;;;6.95;1.10;;;12.50;99.90;;;;;;5048220;28;20045;-75
2022/09/25 07:48:30;;;;;;;10.23;2.38;;;12.60;99.90;;;;;;5043463;28;20056;-75
2022/09/25 07:51:04;;;;;;;5.40;0.82;;;12.70;99.90;;;;;;5048315;28;20045;-76
2022/09/25 07:53:30;;;;;;;4.00;0.80;;;12.90;99.90;;;;;;5022320;28;20076;-78
2022/09/25 07:55:58;;;;;;;5.35;1.27;;;12.90;99.90;;;;;;5057394;28;20466;-76
2022/09/25 07:58:24;;;;;;;3.65;1.13;;;12.90;99.90;;;;;;5034687;28;20041;-74
2022/09/25 08:00:57;;;;;;;4.35;0.80;;;12.80;99.90;;;;;;5043548;28;20380;-80
2022/09/25 08:03:23;;;;;;;7.95;1.00;;;12.90;99.90;;;;;;5029495;28;20051;-77
2022/09/25 08:05:59;;;;;;;3.67;0.47;;;12.80;99.90;;;;;;5058966;28;20032;-77
2022/09/25 08:08:26;;;;;;;2.25;0.93;;;13.00;99.90;;;;;;5031103;28;20047;-75
2022/09/25 08:10:54;;;;;;;7.40;0.70;;;13.10;99.90;;;;;;5030447;28;20071;-75
2022/09/25 08:13:21;;;;;;;8.40;1.15;;;13.10;99.90;;;;;;5030006;28;20045;-76
2022/09/25 08:15:47;;;;;;;6.32;2.05;;;13.40;99.90;;;;;;5043775;28;20053;-78
2022/09/25 08:18:13;;;;;;;7.70;0.98;;;13.30;99.90;;;;;;5049705;28;20041;-77
2022/09/25 08:20:39;;;;;;;8.90;1.83;;;13.30;99.90;;;;;;5043941;28;20051;-77
2022/09/25 08:23:06;;;;;;;8.40;1.95;;;13.30;99.90;;;;;;5028800;28;20038;-75
2022/09/25 08:25:31;;;;;;;4.85;1.17;;;13.50;99.90;;;;;;5050811;28;20049;-76
2022/09/25 08:27:57;;;;;;;8.52;2.13;;;13.80;99.90;;;;;;5038712;28;20377;-75
2022/09/25 08:30:23;;;;;;;7.38;0.70;;;13.90;99.90;;;;;;5042907;28;20080;-77
2022/09/25 08:32:51;;;;;;;6.45;1.00;;;13.70;99.90;;;;;;5033363;28;20064;-76
2022/09/25 08:35:17;;;;;;;2.95;0.52;;;13.70;99.90;;;;;;5042102;28;20099;-75
2022/09/25 08:37:47;;;;;;;5.40;0.80;;;14.10;99.90;;;;;;5043015;28;20076;-74
2022/09/25 08:40:25;;;;;;;6.95;1.15;;;14.20;99.90;;;;;;5043911;28;20044;-76
2022/09/25 08:42:53;;;;;;;6.55;0.70;;;14.20;99.90;;;;;;5029207;28;20041;-75
2022/09/25 08:51:16;;;;;;;2.88;0.75;;;13.70;99.90;;;;;;5039902;28;20045;-75
2022/09/25 08:53:44;;;;;;;3.72;1.05;;;13.30;99.90;;;;;;5026854;28;20037;-76
2022/09/25 08:56:18;;;;;;;3.63;0.70;;;13.40;99.90;;;;;;5034584;28;20041;-74
2022/09/25 08:59:00;;;;;;;4.07;0.88;;;13.40;99.90;;;;;;5014845;28;20052;-75
2022/09/25 09:01:29;;;;;;;2.70;0.77;;;13.40;99.90;;;;;;5038579;28;20049;-74
2022/09/25 09:04:13;;;;;;;6.43;1.35;;;13.00;99.90;;;;;;5027565;28;20135;-75
2022/09/25 09:06:40;;;;;;;9.90;1.30;;;13.30;99.90;;;;;;5027005;28;20045;-76
2022/09/25 09:09:22;;;;;;;6.28;1.38;;;13.50;99.90;;;;;;5033959;28;20377;-75
2022/09/25 09:11:56;;;;;;;3.03;0.80;;;13.00;99.90;;;;;;5050641;28;20105;-74
2022/09/25 09:14:26;;;;;;;2.85;1.10;;;13.40;99.90;;;;;;5045577;28;20048;-74
2022/09/25 09:17:23;;;;;;;3.33;0.80;;;13.20;99.90;;;;;;5035253;28;20128;-74
2022/09/25 09:19:58;;;;;;;2.60;0.90;;;13.30;99.90;;;;;;5034519;28;20047;-74
2022/09/25 09:22:39;;;;;;;1.98;1.00;;;13.90;99.90;;;;;;5034574;28;20114;-74
2022/09/25 09:25:23;;;;;;;2.97;0.65;;;13.80;99.90;;;;;;5044234;28;20044;-74
2022/09/25 09:28:28;;;;;;;3.15;1.60;;;13.90;99.90;;;;;;5045437;28;20052;-73
2022/09/25 09:31:21;;;;;;;3.90;0.75;;;14.20;99.90;;;;;;5047229;28;20057;-73
2022/09/25 09:33:47;;;;;;;1.80;0.40;;;14.00;99.90;;;;;;5043165;28;20565;-73
2022/09/25 09:36:36;;;;;;;5.82;0.80;;;14.10;99.90;;;;;;5034325;28;20083;-74
2022/09/25 09:39:23;;;;;;;5.90;1.55;;;14.70;99.90;;;;;;5026796;28;20041;-72
2022/09/25 09:42:10;;;;;;;5.80;1.42;;;14.60;99.90;;;;;;5049188;28;20569;-72
2022/09/25 09:44:50;;;;;;;5.25;1.25;;;14.60;99.90;;;;;;5025229;28;20061;-74
2022/09/25 09:47:59;;;;;;;8.07;2.20;;;14.80;99.90;;;;;;5041276;28;20102;-75
2022/09/25 09:50:47;;;;;;;10.75;1.25;;;14.60;99.90;;;;;;5023338;28;20091;-74
2022/09/25 09:53:33;;;;;;;7.03;0.98;;;14.50;99.90;;;;;;5036276;28;20063;-74
2022/09/25 09:56:13;;;;;;;2.22;0.50;;;14.20;99.90;;;;;;5041281;28;20399;-73
2022/09/25 09:58:39;;;;;;;;;;;14.10;99.90;;;;;;5042861;28;20399;-73
2022/09/25 10:01:05;;;;;;;2.70;0.70;;;14.00;99.90;;;;;;5043414;28;19921;-73
2022/09/25 10:03:37;;;;;;;2.70;1.08;;;13.90;99.90;;;;;;5043367;28;20084;-74
2022/09/25 10:06:09;;;;;;;2.60;1.00;;;13.90;99.90;;;;;;5045261;28;20045;-74
2022/09/25 10:08:35;;;;;;;4.30;0.70;;;13.90;99.90;;;;;;5020381;28;20048;-74
2022/09/25 10:11:11;;;;;;;1.85;0.60;;;13.80;99.90;;;;;;5045427;28;20114;-74
2022/09/25 10:13:38;;;;;;;8.23;1.20;;;14.20;99.90;;;;;;5030595;28;20037;-74
2022/09/25 10:16:20;;;;;;;4.13;0.38;;;14.30;99.90;;;;;;5040730;28;20446;-74
2022/09/25 10:19:05;;;;;;;3.33;0.90;;;14.50;99.90;;;;;;5027944;28;20057;-74
2022/09/25 10:21:42;;;;;;;2.95;0.43;;;14.90;99.90;;;;;;5042374;28;20075;-74
2022/09/25 10:24:07;;;;;;;0.95;0.50;;;15.10;99.90;;;;;;5031740;28;20042;-73
2022/09/25 10:26:37;;;;;;;1.77;0.30;;;14.80;99.90;;;;;;5038730;28;20047;-74
2022/09/25 10:29:04;;;;;;;2.95;0.73;;;14.80;99.90;;;;;;5043948;28;20064;-74
2022/09/25 10:31:33;;;;;;;1.55;0.47;;;15.10;99.90;;;;;;5014253;28;20145;-73
2022/09/25 10:34:20;;;;;;;3.03;0.50;;;15.40;99.90;;;;;;5052184;28;20053;-73
2022/09/25 10:36:50;;;;;;;1.05;0.40;;;15.30;99.90;;;;;;5042542;28;20503;-72
2022/09/25 10:39:31;;;;;;;0.85;0.28;;;14.90;99.90;;;;;;5044354;28;20041;-73
2022/09/25 10:42:01;;;;;;;3.35;0.63;;;14.70;99.90;;;;;;5035941;28;20073;-74
2022/09/25 10:44:35;;;;;;;7.28;0.38;;;14.30;99.90;;;;;;5023891;28;20466;-74
2022/09/25 10:50:25;;;;;;;0.77;0.77;;;14.20;99.90;;;;;;5032645;28;20049;-73
2022/09/25 10:53:00;;;;;;;5.85;1.77;;;14.20;99.90;;;;;;5031162;28;20379;-73
2022/09/25 10:55:50;;;;;;;1.40;0.68;;;14.70;99.90;;;;;;5048397;28;20456;-76
2022/09/25 10:58:26;;;;;;;1.00;0.22;;;15.00;99.90;;;;;;5022730;28;20486;-74
2022/09/25 11:01:00;;;;;;;3.00;0.47;;;15.10;99.90;;;;;;5036975;28;20049;-74
2022/09/25 11:03:27;;;;;;;1.45;0.25;;;14.90;99.90;;;;;;5045261;28;20185;-74
2022/09/25 11:06:21;;;;;;;1.45;0.20;;;14.80;99.90;;;;;;5023531;28;20159;-72
2022/09/25 11:09:08;;;;;;;4.05;0.73;;;14.60;99.90;;;;;;5040859;28;20095;-74
2022/09/25 11:11:35;;;;;;;1.27;0.20;;;14.50;99.90;;;;;;5037764;28;20366;-73
2022/09/25 11:14:03;;;;;;;2.45;0.68;;;14.50;99.90;;;;;;5023711;28;20073;-73
2022/09/25 11:17:27;;;;;;;0.65;0.43;;;14.50;99.90;;;;;;5030327;28;20061;-73
2022/09/25 11:20:20;;;;;;;2.58;0.38;;;14.50;99.90;;;;;;4972118;28;20050;-73
2022/09/25 11:23:21;;;;;;;4.30;0.63;;;14.50;99.90;;;;;;4980927;28;20054;-73
2022/09/25 11:26:15;;;;;;;3.00;1.55;;;14.60;99.90;;;;;;5007737;28;20053;-74
2022/09/25 11:29:09;;;;;;;2.38;0.32;;;14.70;99.90;;;;;;5025784;28;20041;-74
2022/09/25 11:31:38;;;;;;;2.58;1.48;;;14.80;99.90;;;;;;5023054;28;20045;-73
2022/09/25 11:34:12;;;;;;;7.80;1.08;;;14.90;99.90;;;;;;5019813;28;20115;-74
2022/09/25 11:36:48;;;;;;;1.77;0.63;;;15.00;99.90;;;;;;5027708;28;20399;-75
2022/09/25 11:42:58;;;;;;;1.58;0.55;;;15.20;99.90;;;;;;5025644;28;20186;-75
2022/09/25 11:45:34;;;;;;;1.38;0.52;;;15.20;99.90;;;;;;5019772;28;20060;-73
2022/09/25 11:48:23;;;;;;;2.95;0.45;;;15.40;99.90;;;;;;5056418;28;20079;-74
2022/09/25 11:51:34;;;;;;;1.63;0.28;;;15.60;99.90;;;;;;5030311;28;20635;-74
2022/09/25 11:54:27;;;;;;;2.88;0.40;;;15.50;99.90;;;;;;5041984;28;20079;-74
2022/09/25 11:57:01;;;;;;;4.78;0.40;;;15.60;99.90;;;;;;5047509;28;20400;-74
2022/09/25 12:00:06;;;;;;;4.78;1.55;;;15.60;99.90;;;;;;5042267;28;20049;-74
2022/09/25 12:03:01;;;;;;;3.00;0.80;;;15.50;99.90;;;;;;5003271;28;20055;-74
2022/09/25 12:06:01;;;;;;;2.78;0.77;;;15.30;99.90;;;;;;5027961;28;20076;-71
2022/09/25 12:08:53;;;;;;;1.40;0.50;;;15.30;99.90;;;;;;5042712;28;20114;-74
2022/09/25 12:11:47;;;;;;;4.72;0.65;;;15.30;99.90;;;;;;5040448;28;20057;-75
2022/09/25 12:14:18;;;;;;;3.03;0.55;;;15.30;99.90;;;;;;5033427;28;20045;-74
2022/09/25 12:17:07;;;;;;;3.78;0.60;;;15.40;99.90;;;;;;5051094;28;20063;-74
2022/09/25 12:19:48;;;;;;;5.97;1.53;;;15.40;99.90;;;;;;5036052;28;20121;-75
2022/09/25 12:22:39;;;;;;;4.65;0.43;;;15.50;99.90;;;;;;5045560;28;20045;-74
2022/09/25 12:25:36;;;;;;;3.53;0.50;;;15.50;99.90;;;;;;5042375;28;20041;-73
2022/09/25 12:28:27;;;;;;;4.80;1.35;;;15.60;99.90;;;;;;5028545;28;20491;-73
2022/09/25 12:31:18;;;;;;;9.13;1.80;;;15.70;99.90;;;;;;5050038;28;20345;-74
2022/09/25 12:34:00;;;;;;;;;;;15.70;99.90;;;;;;5038435;28;20049;-74
2022/09/25 12:36:35;;;;;;;3.67;1.30;;;15.60;99.90;;;;;;5066325;28;19927;-75
2022/09/25 12:39:19;;;;;;;1.33;0.20;;;15.80;99.90;;;;;;5068586;28;20383;-73
2022/09/25 12:42:03;;;;;;;1.65;0.43;;;15.90;99.90;;;;;;5068135;28;20052;-74
2022/09/25 12:44:42;;;;;;;2.90;0.35;;;16.20;99.90;;;;;;5029058;28;20124;-74
2022/09/25 12:47:26;;;;;;;2.47;0.32;;;16.30;99.90;;;;;;5032211;28;20088;-74
2022/09/25 12:50:13;;;;;;;3.35;0.28;;;16.30;99.90;;;;;;5028488;28;20045;-73
2022/09/25 12:52:53;;;;;;;2.08;0.30;;;16.60;99.90;;;;;;5042772;28;20055;-74
2022/09/25 12:55:25;;;;;;;3.80;1.27;;;16.60;99.90;;;;;;5029874;28;20053;-74
2022/09/25 12:57:59;;;;;;;2.97;0.45;;;16.60;99.90;;;;;;5035176;28;20045;-75
2022/09/25 13:00:29;;;;;;;2.38;0.63;;;16.70;99.90;;;;;;5045839;28;20052;-75
2022/09/25 13:03:07;;;;;;;;;;;16.60;99.90;;;;;;5041108;28;20037;-73
2022/09/25 13:05:51;;;;;;;29.45;2.22;;;16.30;99.90;;;;;;5042656;28;19921;-76
2022/09/25 13:08:42;;;;;;;3.40;0.30;;;16.00;99.90;;;;;;5035794;28;20407;-74
2022/09/25 13:11:33;;;;;;;2.30;0.82;;;15.90;99.90;;;;;;5028179;28;20411;-74
2022/09/25 13:14:00;;;;;;;;;;;16.00;99.90;;;;;;5037803;28;20041;-75
2022/09/25 13:16:26;;;;;;;2.22;0.30;;;16.30;99.90;;;;;;5029366;28;20460;-75
2022/09/25 13:19:22;;;;;;;2.00;0.40;;;16.40;99.90;;;;;;5045628;28;20052;-75
2022/09/25 13:21:48;;;;;;;4.57;0.80;;;16.40;99.90;;;;;;5038680;28;20045;-75
2022/09/25 13:24:16;;;;;;;2.75;0.35;;;16.50;99.90;;;;;;5036880;28;20037;-76
2022/09/25 13:26:52;;;;;;;2.33;0.70;;;16.40;99.90;;;;;;5047593;28;20120;-77
2022/09/25 13:29:27;;;;;;;0.95;0.40;;;16.30;99.90;;;;;;5044165;28;20037;-76
2022/09/25 13:32:06;;;;;;;1.15;0.40;;;16.30;99.90;;;;;;5053528;28;20399;-76
2022/09/25 13:34:39;;;;;;;3.22;0.57;;;16.20;99.90;;;;;;5032826;28;20042;-74
2022/09/25 13:37:08;;;;;;;2.47;0.52;;;16.30;99.90;;;;;;5047009;28;20472;-75
2022/09/25 13:42:29;;;;;;;2.55;0.77;;;16.40;99.90;;;;;;5050170;28;20048;-75
2022/09/25 13:45:06;;;;;;;2.47;0.50;;;16.20;99.90;;;;;;5035061;28;20124;-74
2022/09/25 13:47:43;;;;;;;1.33;0.20;;;16.50;99.90;;;;;;5026027;28;20041;-74
2022/09/25 13:50:21;;;;;;;4.70;0.50;;;16.60;99.90;;;;;;5028159;28;20045;-74